< Typhoon 195202 1952 Season Typhoon 195204 >
Typhoon 195203 (EMMA)
General InformationTrack Information on Google Maps || Disaster Info.ResourceGoogle EarthGE AnimationAtom FeedGeoJSON
Detalied Best Track (Time Zone = UTC)
Year Month Day Hour Lat. Long. Pressure (hPa) Wind (kt) Class Image Chart
1952 6 28 00 5.2 143.6 1002 0 2 -- Chart
1952 6 28 06 6.2 143.6 996 0 2 -- Chart
1952 6 28 12 6.8 143.2 995 0 2 -- Chart
1952 6 28 18 7.4 142.7 994 0 2 -- Chart
1952 6 29 00 7.8 141.8 991 0 9 -- Chart
1952 6 29 06 8.1 141.0 986 0 9 -- Chart
1952 6 29 12 8.4 139.8 984 0 9 -- Chart
1952 6 29 18 8.7 138.7 982 0 9 -- Chart
1952 6 30 00 8.9 137.3 979 0 9 -- Chart
1952 6 30 06 9.1 135.8 975 0 9 -- Chart
1952 6 30 12 9.2 134.1 978 0 9 -- Chart
1952 6 30 18 9.3 132.5 981 0 9 -- Chart
1952 7 1 00 9.3 131.3 981 0 9 -- Chart
1952 7 1 06 9.3 130.5 973 0 9 -- Chart
1952 7 1 12 9.5 129.1 973 0 9 -- Chart
1952 7 1 18 9.7 127.8 973 0 9 -- Chart
1952 7 2 00 9.8 126.5 974 0 9 -- Chart
1952 7 2 06 10.2 125.1 977 0 9 -- Chart
1952 7 2 12 10.3 124.2 980 0 9 -- Chart
1952 7 2 18 10.7 123.1 983 0 9 -- Chart
1952 7 3 00 11.0 122.2 985 0 9 -- Chart
1952 7 3 06 11.4 121.3 987 0 9 -- Chart
1952 7 3 12 12.0 120.2 987 0 9 -- Chart
1952 7 3 18 12.5 119.1 987 0 9 -- Chart
1952 7 4 00 13.1 118.0 986 0 9 -- Chart
1952 7 4 06 14.2 117.2 983 0 9 -- Chart
1952 7 4 12 15.4 116.2 978 0 9 -- Chart
1952 7 4 18 16.3 115.0 976 0 9 -- Chart
1952 7 5 00 17.4 113.9 975 0 9 -- Chart
1952 7 5 06 18.5 112.7 975 0 9 -- Chart
1952 7 5 12 19.4 111.5 978 0 9 -- Chart
1952 7 5 18 20.3 110.0 982 0 9 -- Chart
1952 7 6 00 20.9 108.5 985 0 9 -- Chart
1952 7 6 06 21.2 106.8 989 0 9 -- Chart
1952 7 6 12 21.0 104.5 993 0 2 -- Chart
Japan Meteorological Agency Best Track Data | Correction Date : 1989-06-01
< Typhoon 195202 1952 Season Typhoon 195204 >

Help